IKU weather

Issyk-Kul International Airport
Tamchy, Issyk Kul Region, Kyrgyzstan

Public forecast

Using degrees Celsius for public forecast. Weather courtesy of forecast.io.

METAR (pilot weather report)

Closest report is Almaty Airport, 48.1 nm (89.1 km) NNE. Retrieved 2019/03/23 08:30 UTC (10 minutes ago):

UAAA 230830Z 05003MPS 340V100 9999 FEW100 BKN200 17/M01 Q1014 R88/65D NOSIG

TAF (pilot weather forecast)

Closest forecast is Almaty Airport, 48.1 nm (89.1 km) NNE. Retrieved 2019/03/23 06:31 UTC (2 hours ago):

TAF UAAA 230500Z 2306/2406 02005MPS 9999 SCT050CB BKN100 TX18/2308Z TN04/2401Z FM231100 32005MPS 3100 BR FU BKN030CB BKN100 TEMPO 2312/2318 26006MPS 1200 TEMPO 2318/2406 24010MPS 1500 SHRA BR BKN010CB OVC100 PROB40 TEMPO 2318/2406 TS